createdAt,value
2022-11-05T00:00:35.922Z,3.95
2022-11-05T00:05:55.939Z,3.38
2022-11-05T00:10:57.378Z,3.80
2022-11-05T00:16:17.498Z,3.10
2022-11-05T00:21:37.677Z,3.45
2022-11-05T00:26:39.144Z,3.40
2022-11-05T00:31:40.576Z,4.53
2022-11-05T00:36:42.008Z,4.03
2022-11-05T00:41:43.524Z,5.70
2022-11-05T00:46:44.993Z,4.07
2022-11-05T00:51:46.413Z,3.63
2022-11-05T00:56:47.946Z,3.70
2022-11-05T01:01:49.440Z,4.10
2022-11-05T01:06:50.914Z,5.40
2022-11-05T01:11:52.394Z,3.47
2022-11-05T01:16:54.397Z,3.30
2022-11-05T01:21:55.890Z,3.57
2022-11-05T01:26:57.477Z,3.70
2022-11-05T01:31:58.974Z,3.13
2022-11-05T01:37:00.425Z,4.03
2022-11-05T01:42:01.999Z,2.87
2022-11-05T01:47:03.474Z,3.60
2022-11-05T01:52:05.048Z,3.30
2022-11-05T01:57:09.916Z,2.57
2022-11-05T02:02:11.774Z,3.10
2022-11-05T02:07:14.153Z,2.97
2022-11-05T02:12:15.745Z,3.03
2022-11-05T02:17:40.498Z,2.73
2022-11-05T02:23:19.533Z,3.53
2022-11-05T02:28:39.524Z,3.03
2022-11-05T02:34:20.426Z,2.63
2022-11-05T02:39:40.173Z,2.83
2022-11-05T02:44:44.773Z,3.10
2022-11-05T02:55:20.021Z,2.53
2022-11-05T03:00:48.952Z,3.20
2022-11-05T03:06:11.660Z,2.53
2022-11-05T03:11:19.797Z,2.90
2022-11-05T03:16:41.961Z,2.50
2022-11-05T03:21:53.283Z,2.60
2022-11-05T03:27:02.501Z,2.70
2022-11-05T03:32:05.712Z,2.70
2022-11-05T03:37:09.241Z,2.73
2022-11-05T03:42:14.625Z,3.20
2022-11-05T03:47:21.933Z,2.47
2022-11-05T03:52:29.288Z,3.10
2022-11-05T03:57:34.588Z,3.00
2022-11-05T04:02:37.572Z,3.00
2022-11-05T04:07:57.664Z,3.57
2022-11-05T04:13:17.801Z,3.10
2022-11-05T04:18:19.549Z,3.28
2022-11-05T04:23:39.543Z,4.00
2022-11-05T04:29:02.569Z,3.80
2022-11-05T04:34:08.243Z,3.40
2022-11-05T04:39:09.705Z,4.30
2022-11-05T04:44:11.178Z,3.58
2022-11-05T04:49:12.661Z,3.67
2022-11-05T04:54:14.115Z,3.00
2022-11-05T04:59:15.597Z,4.03
2022-11-05T05:04:17.068Z,3.80
2022-11-05T05:09:18.552Z,2.85
2022-11-05T05:14:19.998Z,2.75
2022-11-05T05:19:21.392Z,3.10
2022-11-05T05:24:24.889Z,2.65
2022-11-05T05:29:26.330Z,2.80
2022-11-05T05:34:27.809Z,3.60
2022-11-05T05:39:29.233Z,3.00
2022-11-05T05:44:30.647Z,2.60
2022-11-05T05:49:32.360Z,2.92
2022-11-05T05:54:38.315Z,2.93
2022-11-05T05:59:42.850Z,3.60
2022-11-05T06:04:44.292Z,2.88
2022-11-05T06:09:45.787Z,3.53
2022-11-05T06:14:47.696Z,3.10
2022-11-05T06:19:49.162Z,3.13
2022-11-05T06:24:50.579Z,2.90
2022-11-05T06:29:51.995Z,3.13
2022-11-05T06:34:53.502Z,3.00
2022-11-05T06:39:57.033Z,3.40
2022-11-05T06:44:58.535Z,3.10
2022-11-05T06:50:00.012Z,3.17
2022-11-05T06:55:01.496Z,2.42
2022-11-05T07:00:07.621Z,2.58
2022-11-05T07:05:12.794Z,2.58
2022-11-05T07:15:17.221Z,2.23
2022-11-05T07:20:18.698Z,3.00
2022-11-05T07:25:20.329Z,2.88
2022-11-05T07:30:21.832Z,2.80
2022-11-05T07:35:23.742Z,2.20
2022-11-05T07:40:27.581Z,3.30
2022-11-05T07:45:30.956Z,2.22
2022-11-05T07:50:35.396Z,1.95
2022-11-05T07:55:37.678Z,3.00
2022-11-05T08:00:39.858Z,2.75
2022-11-05T08:05:44.554Z,2.88
2022-11-05T08:10:47.217Z,3.05
2022-11-05T08:15:48.757Z,2.53
2022-11-05T08:20:50.203Z,3.22
2022-11-05T08:25:51.675Z,2.15
2022-11-05T08:30:55.823Z,3.45
2022-11-05T08:36:01.852Z,2.33
2022-11-05T08:41:03.369Z,2.85
2022-11-05T08:46:04.889Z,2.90
2022-11-05T08:51:06.299Z,2.08
2022-11-05T08:56:08.186Z,2.47
2022-11-05T09:01:09.744Z,1.35
2022-11-05T09:06:11.233Z,1.75
2022-11-05T09:11:12.844Z,1.40
2022-11-05T09:16:20.412Z,1.20
2022-11-05T09:21:21.920Z,1.88
2022-11-05T09:26:24.455Z,1.45
2022-11-05T09:31:25.957Z,1.58
2022-11-05T09:36:27.401Z,1.80
2022-11-05T09:41:36.788Z,1.35
2022-11-05T09:46:47.246Z,2.10
2022-11-05T09:51:48.977Z,1.70
2022-11-05T09:56:52.942Z,0.90
2022-11-05T10:02:04.018Z,1.30
2022-11-05T10:07:10.505Z,1.13
2022-11-05T10:12:37.218Z,1.15
2022-11-05T10:17:42.355Z,1.23
2022-11-05T10:22:49.166Z,1.35
2022-11-05T10:27:54.517Z,1.60
2022-11-05T10:33:00.509Z,1.90
2022-11-05T10:38:02.228Z,2.47
2022-11-05T10:43:05.754Z,3.80
2022-11-05T10:48:27.380Z,1.42
2022-11-05T10:53:38.916Z,1.00
2022-11-05T10:58:55.240Z,1.17
2022-11-05T11:04:17.596Z,1.17
2022-11-05T11:09:26.287Z,1.47
2022-11-05T11:14:28.095Z,0.95
2022-11-05T11:19:32.677Z,1.05
2022-11-05T11:24:39.846Z,0.85
2022-11-05T11:29:49.169Z,1.05
2022-11-05T11:34:53.877Z,1.85
2022-11-05T11:40:04.031Z,0.93
2022-11-05T11:45:25.555Z,1.35
2022-11-05T11:50:44.300Z,0.82
2022-11-05T11:56:11.801Z,0.60
2022-11-05T12:01:35.344Z,1.35
2022-11-05T12:11:54.939Z,1.67
2022-11-05T12:17:07.230Z,1.67
2022-11-05T12:22:36.510Z,4.00
2022-11-05T12:27:49.899Z,4.22
2022-11-05T12:33:00.248Z,1.27
2022-11-05T12:38:29.571Z,1.00
2022-11-05T12:43:31.973Z,3.83
2022-11-05T12:48:48.447Z,1.00
2022-11-05T12:54:05.494Z,0.90
2022-11-05T12:59:39.925Z,1.20
2022-11-05T13:04:50.820Z,1.02
2022-11-05T13:09:57.928Z,1.83
2022-11-05T13:15:10.575Z,1.30
2022-11-05T13:20:19.059Z,1.13
2022-11-05T13:25:27.841Z,1.20
2022-11-05T13:30:41.473Z,1.15
2022-11-05T13:36:20.937Z,2.17
2022-11-05T13:41:34.621Z,1.42
2022-11-05T13:46:41.836Z,2.00
2022-11-05T13:51:53.314Z,3.13
2022-11-05T13:57:12.107Z,1.45
2022-11-05T14:02:28.639Z,1.15
2022-11-05T14:07:45.184Z,1.48
2022-11-05T14:12:50.863Z,1.80
2022-11-05T14:18:31.101Z,1.38
2022-11-05T14:23:49.085Z,1.20
2022-11-05T14:29:11.780Z,1.67
2022-11-05T14:34:13.179Z,1.92
2022-11-05T14:39:20.470Z,4.78
2022-11-05T14:44:23.588Z,2.75
2022-11-05T14:49:29.293Z,2.28
2022-11-05T14:54:41.369Z,1.60
2022-11-05T14:59:48.581Z,1.63
2022-11-05T15:04:52.680Z,1.50
2022-11-05T15:09:54.088Z,2.10
2022-11-05T15:15:02.084Z,2.40
2022-11-05T15:20:06.583Z,3.08
2022-11-05T15:30:30.148Z,2.88
2022-11-05T15:35:37.840Z,3.97
2022-11-05T15:40:39.296Z,25.05
2022-11-05T15:45:40.742Z,13.90
2022-11-05T15:50:42.444Z,6.78
2022-11-05T15:55:54.969Z,6.28
2022-11-05T16:00:56.474Z,3.95
2022-11-05T16:06:00.246Z,4.45
2022-11-05T16:11:01.770Z,29.60
2022-11-05T16:16:14.699Z,20.55
2022-11-05T16:21:18.961Z,13.05
2022-11-05T16:26:55.853Z,6.28
2022-11-05T16:31:53.835Z,6.15
2022-11-05T16:36:59.551Z,5.40
2022-11-05T16:42:01.006Z,4.72
2022-11-05T16:47:02.475Z,4.50
2022-11-05T16:52:08.802Z,4.10
2022-11-05T16:57:28.784Z,3.75
2022-11-05T17:02:30.456Z,16.55
2022-11-05T17:07:34.735Z,5.13
2022-11-05T17:12:38.655Z,3.92
2022-11-05T17:17:40.100Z,4.30
2022-11-05T17:22:41.553Z,4.82
2022-11-05T17:27:43.207Z,5.80
2022-11-05T17:32:44.978Z,4.93
2022-11-05T17:37:46.865Z,5.93
2022-11-05T17:42:49.278Z,7.15
2022-11-05T17:47:50.755Z,6.65
2022-11-05T17:52:52.237Z,6.00
2022-11-05T17:57:53.728Z,7.07
2022-11-05T18:02:55.450Z,6.93
2022-11-05T18:07:57.382Z,5.95
2022-11-05T18:12:58.973Z,5.22
2022-11-05T18:18:00.452Z,4.90
2022-11-05T18:23:02.112Z,6.38
2022-11-05T18:28:03.902Z,4.85
2022-11-05T18:33:05.582Z,5.65
2022-11-05T18:38:07.102Z,6.13
2022-11-05T18:43:08.672Z,5.40
2022-11-05T18:48:11.106Z,5.50
2022-11-05T18:53:12.872Z,6.22
2022-11-05T18:58:14.655Z,5.90
2022-11-05T19:03:16.193Z,5.60
2022-11-05T19:08:17.672Z,7.55
2022-11-05T19:13:19.120Z,5.60
2022-11-05T19:18:20.659Z,7.13
2022-11-05T19:23:22.213Z,7.18
2022-11-05T19:28:23.786Z,6.60
2022-11-05T19:33:25.642Z,6.63
2022-11-05T19:38:27.193Z,7.32
2022-11-05T19:43:29.047Z,7.38
2022-11-05T19:48:31.402Z,7.22
2022-11-05T19:53:35.033Z,6.68
2022-11-05T19:58:36.618Z,6.70
2022-11-05T20:03:39.006Z,7.18
2022-11-05T20:08:59.802Z,8.55
2022-11-05T20:14:03.319Z,7.85
2022-11-05T20:19:07.447Z,8.30
2022-11-05T20:24:11.675Z,8.52
2022-11-05T20:29:13.247Z,7.82
2022-11-05T20:34:14.717Z,7.10
2022-11-05T20:39:17.638Z,7.00
2022-11-05T20:44:19.644Z,7.00
2022-11-05T20:49:25.132Z,6.97
2022-11-05T20:54:27.321Z,7.53
2022-11-05T20:59:28.764Z,8.48
2022-11-05T21:04:30.622Z,7.00
2022-11-05T21:09:32.072Z,7.50
2022-11-05T21:14:33.523Z,7.38
2022-11-05T21:19:35.664Z,7.68
2022-11-05T21:24:37.170Z,7.65
2022-11-05T21:29:38.651Z,7.65
2022-11-05T21:34:40.146Z,7.30
2022-11-05T21:39:41.589Z,7.93
2022-11-05T21:44:43.140Z,7.70
2022-11-05T21:49:44.695Z,7.60
2022-11-05T21:55:05.088Z,7.25
2022-11-05T22:00:09.626Z,7.45
2022-11-05T22:10:16.105Z,6.72
2022-11-05T22:15:18.028Z,7.68
2022-11-05T22:20:19.976Z,7.60
2022-11-05T22:25:21.752Z,7.20
2022-11-05T22:30:23.210Z,8.77
2022-11-05T22:35:24.667Z,8.20
2022-11-05T22:40:26.127Z,8.38
2022-11-05T22:45:27.570Z,7.05
2022-11-05T22:50:29.070Z,7.85
2022-11-05T22:55:30.555Z,6.70
2022-11-05T23:00:37.353Z,7.18
2022-11-05T23:05:38.810Z,7.75
2022-11-05T23:10:58.946Z,7.43
2022-11-05T23:16:18.991Z,7.22
2022-11-05T23:21:39.128Z,6.30
2022-11-05T23:26:52.886Z,7.25
2022-11-05T23:32:12.767Z,7.35
2022-11-05T23:37:32.757Z,7.57
2022-11-05T23:42:53.310Z,7.53
2022-11-05T23:48:30.215Z,7.70
2022-11-05T23:53:34.128Z,8.30
2022-11-05T23:58:37.107Z,9.02
